sensor_id;sensor_type;location;lat;lon;timestamp;P1;durP1;ratioP1;P2;durP2;ratioP2
6089;SDS011;3073;42.660;23.316;2022-07-06T00:01:54;35.90;;;27.30;;
6089;SDS011;3073;42.660;23.316;2022-07-06T00:04:22;35.30;;;26.20;;
6089;SDS011;3073;42.660;23.316;2022-07-06T00:06:49;43.53;;;27.23;;
6089;SDS011;3073;42.660;23.316;2022-07-06T00:09:17;31.00;;;25.00;;
6089;SDS011;3073;42.660;23.316;2022-07-06T00:11:51;32.13;;;24.43;;
6089;SDS011;3073;42.660;23.316;2022-07-06T00:14:19;29.70;;;25.43;;
6089;SDS011;3073;42.660;23.316;2022-07-06T00:16:46;26.03;;;23.23;;
6089;SDS011;3073;42.660;23.316;2022-07-06T00:19:13;26.07;;;23.27;;
6089;SDS011;3073;42.660;23.316;2022-07-06T00:21:41;27.63;;;22.27;;
6089;SDS011;3073;42.660;23.316;2022-07-06T00:24:08;28.03;;;22.70;;
6089;SDS011;3073;42.660;23.316;2022-07-06T00:26:35;29.60;;;24.00;;
6089;SDS011;3073;42.660;23.316;2022-07-06T00:29:02;29.97;;;22.90;;
6089;SDS011;3073;42.660;23.316;2022-07-06T00:31:29;30.30;;;25.17;;
6089;SDS011;3073;42.660;23.316;2022-07-06T00:33:56;28.20;;;23.67;;
6089;SDS011;3073;42.660;23.316;2022-07-06T00:36:22;30.93;;;24.33;;
6089;SDS011;3073;42.660;23.316;2022-07-06T00:38:51;31.07;;;23.53;;
6089;SDS011;3073;42.660;23.316;2022-07-06T00:41:18;30.80;;;24.70;;
6089;SDS011;3073;42.660;23.316;2022-07-06T00:43:48;30.80;;;24.53;;
6089;SDS011;3073;42.660;23.316;2022-07-06T00:46:16;36.83;;;24.97;;
6089;SDS011;3073;42.660;23.316;2022-07-06T00:48:43;36.27;;;23.83;;
6089;SDS011;3073;42.660;23.316;2022-07-06T00:51:10;29.33;;;22.00;;
6089;SDS011;3073;42.660;23.316;2022-07-06T00:53:38;27.73;;;23.07;;
6089;SDS011;3073;42.660;23.316;2022-07-06T00:56:08;33.00;;;24.00;;
6089;SDS011;3073;42.660;23.316;2022-07-06T00:58:36;33.50;;;24.60;;
6089;SDS011;3073;42.660;23.316;2022-07-06T01:01:03;35.50;;;26.30;;
6089;SDS011;3073;42.660;23.316;2022-07-06T01:03:30;38.23;;;27.47;;
6089;SDS011;3073;42.660;23.316;2022-07-06T01:05:57;34.83;;;27.07;;
6089;SDS011;3073;42.660;23.316;2022-07-06T01:08:23;39.30;;;29.33;;
6089;SDS011;3073;42.660;23.316;2022-07-06T01:10:51;38.90;;;29.63;;
6089;SDS011;3073;42.660;23.316;2022-07-06T01:13:19;34.30;;;26.60;;
6089;SDS011;3073;42.660;23.316;2022-07-06T01:15:46;38.23;;;27.17;;
6089;SDS011;3073;42.660;23.316;2022-07-06T01:18:13;38.30;;;28.10;;
6089;SDS011;3073;42.660;23.316;2022-07-06T01:20:41;44.00;;;30.70;;
6089;SDS011;3073;42.660;23.316;2022-07-06T01:23:08;42.17;;;31.70;;
6089;SDS011;3073;42.660;23.316;2022-07-06T01:25:35;41.70;;;32.27;;
6089;SDS011;3073;42.660;23.316;2022-07-06T01:28:02;48.90;;;32.70;;
6089;SDS011;3073;42.660;23.316;2022-07-06T01:30:29;41.80;;;31.33;;
6089;SDS011;3073;42.660;23.316;2022-07-06T01:32:56;46.47;;;32.07;;
6089;SDS011;3073;42.660;23.316;2022-07-06T01:35:23;40.33;;;29.67;;
6089;SDS011;3073;42.660;23.316;2022-07-06T01:37:54;40.60;;;30.67;;
6089;SDS011;3073;42.660;23.316;2022-07-06T01:40:20;44.80;;;30.23;;
6089;SDS011;3073;42.660;23.316;2022-07-06T01:42:47;47.50;;;31.30;;
6089;SDS011;3073;42.660;23.316;2022-07-06T01:45:14;40.17;;;30.43;;
6089;SDS011;3073;42.660;23.316;2022-07-06T01:47:41;38.87;;;28.43;;
6089;SDS011;3073;42.660;23.316;2022-07-06T01:50:08;46.70;;;29.90;;
6089;SDS011;3073;42.660;23.316;2022-07-06T01:52:35;43.60;;;25.93;;
6089;SDS011;3073;42.660;23.316;2022-07-06T01:55:05;35.30;;;24.60;;
6089;SDS011;3073;42.660;23.316;2022-07-06T01:57:32;31.17;;;24.10;;
6089;SDS011;3073;42.660;23.316;2022-07-06T01:59:59;35.63;;;23.80;;
6089;SDS011;3073;42.660;23.316;2022-07-06T02:02:26;29.27;;;22.67;;
6089;SDS011;3073;42.660;23.316;2022-07-06T02:04:53;27.10;;;19.67;;
6089;SDS011;3073;42.660;23.316;2022-07-06T02:07:19;23.50;;;20.70;;
6089;SDS011;3073;42.660;23.316;2022-07-06T02:09:46;23.93;;;19.33;;
6089;SDS011;3073;42.660;23.316;2022-07-06T02:12:14;27.90;;;20.30;;
6089;SDS011;3073;42.660;23.316;2022-07-06T02:14:41;23.53;;;20.10;;
6089;SDS011;3073;42.660;23.316;2022-07-06T02:17:08;24.67;;;19.40;;
6089;SDS011;3073;42.660;23.316;2022-07-06T02:19:35;24.53;;;16.90;;
6089;SDS011;3073;42.660;23.316;2022-07-06T02:22:01;23.73;;;17.47;;
6089;SDS011;3073;42.660;23.316;2022-07-06T02:24:29;22.13;;;18.13;;
6089;SDS011;3073;42.660;23.316;2022-07-06T02:26:55;22.10;;;17.70;;
6089;SDS011;3073;42.660;23.316;2022-07-06T02:29:24;22.57;;;17.07;;
6089;SDS011;3073;42.660;23.316;2022-07-06T02:31:51;21.90;;;16.20;;
6089;SDS011;3073;42.660;23.316;2022-07-06T02:34:17;20.33;;;17.10;;
6089;SDS011;3073;42.660;23.316;2022-07-06T02:36:45;19.40;;;15.33;;
6089;SDS011;3073;42.660;23.316;2022-07-06T02:39:11;23.43;;;17.23;;
6089;SDS011;3073;42.660;23.316;2022-07-06T02:41:38;18.83;;;15.77;;
6089;SDS011;3073;42.660;23.316;2022-07-06T02:44:05;20.70;;;16.20;;
6089;SDS011;3073;42.660;23.316;2022-07-06T02:46:34;20.57;;;15.70;;
6089;SDS011;3073;42.660;23.316;2022-07-06T02:49:01;19.57;;;16.10;;
6089;SDS011;3073;42.660;23.316;2022-07-06T02:51:27;24.20;;;16.13;;
6089;SDS011;3073;42.660;23.316;2022-07-06T02:53:54;20.20;;;16.37;;
6089;SDS011;3073;42.660;23.316;2022-07-06T02:56:21;24.13;;;15.87;;
6089;SDS011;3073;42.660;23.316;2022-07-06T02:58:48;22.40;;;17.47;;
6089;SDS011;3073;42.660;23.316;2022-07-06T03:01:15;28.60;;;19.13;;
6089;SDS011;3073;42.660;23.316;2022-07-06T03:03:43;19.80;;;17.00;;
6089;SDS011;3073;42.660;23.316;2022-07-06T03:06:10;23.27;;;17.87;;
6089;SDS011;3073;42.660;23.316;2022-07-06T03:08:37;26.93;;;17.30;;
6089;SDS011;3073;42.660;23.316;2022-07-06T03:11:04;23.37;;;18.67;;
6089;SDS011;3073;42.660;23.316;2022-07-06T03:13:31;26.83;;;17.90;;
6089;SDS011;3073;42.660;23.316;2022-07-06T03:15:59;19.23;;;17.23;;
6089;SDS011;3073;42.660;23.316;2022-07-06T03:18:27;26.27;;;16.43;;
6089;SDS011;3073;42.660;23.316;2022-07-06T03:20:55;18.77;;;15.97;;
6089;SDS011;3073;42.660;23.316;2022-07-06T03:23:22;20.70;;;15.17;;
6089;SDS011;3073;42.660;23.316;2022-07-06T03:25:49;14.80;;;12.80;;
6089;SDS011;3073;42.660;23.316;2022-07-06T03:28:16;21.30;;;13.87;;
6089;SDS011;3073;42.660;23.316;2022-07-06T03:30:42;18.23;;;12.80;;
6089;SDS011;3073;42.660;23.316;2022-07-06T03:33:09;21.37;;;12.50;;
6089;SDS011;3073;42.660;23.316;2022-07-06T03:35:37;16.97;;;12.73;;
6089;SDS011;3073;42.660;23.316;2022-07-06T03:38:05;14.33;;;11.37;;
6089;SDS011;3073;42.660;23.316;2022-07-06T03:40:32;13.80;;;11.17;;
6089;SDS011;3073;42.660;23.316;2022-07-06T03:42:59;15.17;;;10.63;;
6089;SDS011;3073;42.660;23.316;2022-07-06T03:45:26;17.07;;;10.70;;
6089;SDS011;3073;42.660;23.316;2022-07-06T03:47:53;13.10;;;11.10;;
6089;SDS011;3073;42.660;23.316;2022-07-06T03:50:20;14.17;;;10.30;;
6089;SDS011;3073;42.660;23.316;2022-07-06T03:52:47;13.63;;;10.00;;
6089;SDS011;3073;42.660;23.316;2022-07-06T03:55:15;18.13;;;10.83;;
6089;SDS011;3073;42.660;23.316;2022-07-06T03:57:42;12.67;;;10.17;;
6089;SDS011;3073;42.660;23.316;2022-07-06T04:00:09;11.40;;;9.73;;
6089;SDS011;3073;42.660;23.316;2022-07-06T04:02:36;16.40;;;9.27;;
6089;SDS011;3073;42.660;23.316;2022-07-06T04:05:03;17.53;;;10.03;;
6089;SDS011;3073;42.660;23.316;2022-07-06T04:07:31;17.13;;;9.93;;
6089;SDS011;3073;42.660;23.316;2022-07-06T04:09:58;19.13;;;9.77;;
6089;SDS011;3073;42.660;23.316;2022-07-06T04:12:26;12.00;;;9.63;;
6089;SDS011;3073;42.660;23.316;2022-07-06T04:14:55;17.33;;;9.23;;
6089;SDS011;3073;42.660;23.316;2022-07-06T04:17:22;13.73;;;9.20;;
6089;SDS011;3073;42.660;23.316;2022-07-06T04:20:07;14.70;;;10.13;;
6089;SDS011;3073;42.660;23.316;2022-07-06T04:22:36;15.23;;;8.60;;
6089;SDS011;3073;42.660;23.316;2022-07-06T04:25:04;14.63;;;9.03;;
6089;SDS011;3073;42.660;23.316;2022-07-06T04:27:33;12.43;;;8.33;;
6089;SDS011;3073;42.660;23.316;2022-07-06T04:30:00;11.87;;;8.83;;
6089;SDS011;3073;42.660;23.316;2022-07-06T04:32:27;10.90;;;8.67;;
6089;SDS011;3073;42.660;23.316;2022-07-06T04:34:54;12.07;;;9.20;;
6089;SDS011;3073;42.660;23.316;2022-07-06T04:37:21;12.23;;;8.60;;
6089;SDS011;3073;42.660;23.316;2022-07-06T04:39:48;12.90;;;9.07;;
6089;SDS011;3073;42.660;23.316;2022-07-06T04:42:15;14.17;;;8.37;;
6089;SDS011;3073;42.660;23.316;2022-07-06T04:44:43;18.03;;;8.90;;
6089;SDS011;3073;42.660;23.316;2022-07-06T04:47:10;11.93;;;7.30;;
6089;SDS011;3073;42.660;23.316;2022-07-06T04:49:37;10.80;;;7.70;;
6089;SDS011;3073;42.660;23.316;2022-07-06T04:52:05;14.63;;;9.37;;
6089;SDS011;3073;42.660;23.316;2022-07-06T04:54:32;12.87;;;9.37;;
6089;SDS011;3073;42.660;23.316;2022-07-06T04:56:59;15.83;;;10.23;;
6089;SDS011;3073;42.660;23.316;2022-07-06T04:59:26;17.20;;;12.27;;
6089;SDS011;3073;42.660;23.316;2022-07-06T05:01:54;14.23;;;11.57;;
6089;SDS011;3073;42.660;23.316;2022-07-06T05:04:21;20.30;;;12.73;;
6089;SDS011;3073;42.660;23.316;2022-07-06T05:06:56;23.83;;;13.30;;
6089;SDS011;3073;42.660;23.316;2022-07-06T05:09:23;18.43;;;15.30;;
6089;SDS011;3073;42.660;23.316;2022-07-06T05:11:50;21.80;;;16.00;;
6089;SDS011;3073;42.660;23.316;2022-07-06T05:14:17;21.50;;;15.03;;
6089;SDS011;3073;42.660;23.316;2022-07-06T05:16:44;21.13;;;14.57;;
6089;SDS011;3073;42.660;23.316;2022-07-06T05:19:12;19.80;;;15.50;;
6089;SDS011;3073;42.660;23.316;2022-07-06T05:21:39;22.90;;;14.40;;
6089;SDS011;3073;42.660;23.316;2022-07-06T05:24:06;24.93;;;14.97;;
6089;SDS011;3073;42.660;23.316;2022-07-06T05:26:33;19.70;;;14.97;;
6089;SDS011;3073;42.660;23.316;2022-07-06T05:29:00;20.90;;;16.03;;
6089;SDS011;3073;42.660;23.316;2022-07-06T05:31:27;21.63;;;16.17;;
6089;SDS011;3073;42.660;23.316;2022-07-06T05:33:54;23.77;;;15.60;;
6089;SDS011;3073;42.660;23.316;2022-07-06T05:36:23;24.60;;;15.27;;
6089;SDS011;3073;42.660;23.316;2022-07-06T05:38:49;18.50;;;12.83;;
6089;SDS011;3073;42.660;23.316;2022-07-06T05:41:16;19.23;;;13.90;;
6089;SDS011;3073;42.660;23.316;2022-07-06T05:43:43;21.03;;;13.83;;
6089;SDS011;3073;42.660;23.316;2022-07-06T05:46:10;19.63;;;12.20;;
6089;SDS011;3073;42.660;23.316;2022-07-06T05:48:37;19.70;;;12.23;;
6089;SDS011;3073;42.660;23.316;2022-07-06T05:51:23;18.57;;;13.23;;
6089;SDS011;3073;42.660;23.316;2022-07-06T05:53:50;18.80;;;12.00;;
6089;SDS011;3073;42.660;23.316;2022-07-06T05:56:17;17.73;;;12.50;;
6089;SDS011;3073;42.660;23.316;2022-07-06T05:58:43;19.70;;;12.33;;
6089;SDS011;3073;42.660;23.316;2022-07-06T06:01:10;22.10;;;12.27;;
6089;SDS011;3073;42.660;23.316;2022-07-06T06:03:37;17.67;;;12.63;;
6089;SDS011;3073;42.660;23.316;2022-07-06T06:06:04;19.63;;;11.87;;
6089;SDS011;3073;42.660;23.316;2022-07-06T06:08:32;16.40;;;12.00;;
6089;SDS011;3073;42.660;23.316;2022-07-06T06:10:59;18.20;;;12.30;;
6089;SDS011;3073;42.660;23.316;2022-07-06T06:13:26;19.33;;;11.70;;
6089;SDS011;3073;42.660;23.316;2022-07-06T06:15:53;15.73;;;11.30;;
6089;SDS011;3073;42.660;23.316;2022-07-06T06:18:20;12.50;;;11.20;;
6089;SDS011;3073;42.660;23.316;2022-07-06T06:20:47;19.47;;;11.33;;
6089;SDS011;3073;42.660;23.316;2022-07-06T06:23:14;16.57;;;10.97;;
6089;SDS011;3073;42.660;23.316;2022-07-06T06:25:42;16.47;;;11.83;;
6089;SDS011;3073;42.660;23.316;2022-07-06T06:28:09;18.27;;;12.27;;
6089;SDS011;3073;42.660;23.316;2022-07-06T06:30:38;15.07;;;10.83;;
6089;SDS011;3073;42.660;23.316;2022-07-06T06:33:09;24.20;;;13.13;;
6089;SDS011;3073;42.660;23.316;2022-07-06T06:35:37;14.73;;;11.43;;
6089;SDS011;3073;42.660;23.316;2022-07-06T06:38:04;17.77;;;11.20;;
6089;SDS011;3073;42.660;23.316;2022-07-06T06:40:31;16.70;;;13.60;;
6089;SDS011;3073;42.660;23.316;2022-07-06T06:42:59;15.57;;;12.60;;
6089;SDS011;3073;42.660;23.316;2022-07-06T06:45:26;17.13;;;12.60;;
6089;SDS011;3073;42.660;23.316;2022-07-06T06:47:53;16.83;;;12.47;;
6089;SDS011;3073;42.660;23.316;2022-07-06T06:50:20;21.60;;;14.50;;
6089;SDS011;3073;42.660;23.316;2022-07-06T06:52:48;29.27;;;14.50;;
6089;SDS011;3073;42.660;23.316;2022-07-06T06:55:14;28.87;;;16.10;;
6089;SDS011;3073;42.660;23.316;2022-07-06T06:57:41;18.87;;;15.87;;
6089;SDS011;3073;42.660;23.316;2022-07-06T07:00:10;18.10;;;15.60;;
6089;SDS011;3073;42.660;23.316;2022-07-06T07:02:38;21.20;;;14.80;;
6089;SDS011;3073;42.660;23.316;2022-07-06T07:05:06;20.20;;;14.70;;
6089;SDS011;3073;42.660;23.316;2022-07-06T07:07:33;20.17;;;14.50;;
6089;SDS011;3073;42.660;23.316;2022-07-06T07:10:01;18.40;;;14.63;;
6089;SDS011;3073;42.660;23.316;2022-07-06T07:12:29;18.60;;;15.63;;
6089;SDS011;3073;42.660;23.316;2022-07-06T07:14:56;20.63;;;15.70;;
6089;SDS011;3073;42.660;23.316;2022-07-06T07:17:24;23.90;;;16.93;;
6089;SDS011;3073;42.660;23.316;2022-07-06T07:19:51;25.43;;;15.40;;
6089;SDS011;3073;42.660;23.316;2022-07-06T07:22:18;22.60;;;15.70;;
6089;SDS011;3073;42.660;23.316;2022-07-06T07:24:45;24.50;;;16.40;;
6089;SDS011;3073;42.660;23.316;2022-07-06T07:27:12;26.83;;;17.90;;
6089;SDS011;3073;42.660;23.316;2022-07-06T07:29:39;25.90;;;17.50;;
6089;SDS011;3073;42.660;23.316;2022-07-06T07:32:07;21.40;;;17.87;;
6089;SDS011;3073;42.660;23.316;2022-07-06T07:34:36;25.30;;;17.50;;
6089;SDS011;3073;42.660;23.316;2022-07-06T07:37:03;25.70;;;17.17;;
6089;SDS011;3073;42.660;23.316;2022-07-06T07:39:30;21.73;;;17.50;;
6089;SDS011;3073;42.660;23.316;2022-07-06T07:41:57;19.40;;;15.30;;
6089;SDS011;3073;42.660;23.316;2022-07-06T07:44:23;19.40;;;16.30;;
6089;SDS011;3073;42.660;23.316;2022-07-06T07:46:52;22.20;;;16.97;;
6089;SDS011;3073;42.660;23.316;2022-07-06T07:49:19;22.50;;;15.37;;
6089;SDS011;3073;42.660;23.316;2022-07-06T07:51:48;22.10;;;15.73;;
6089;SDS011;3073;42.660;23.316;2022-07-06T07:54:14;18.83;;;15.20;;
6089;SDS011;3073;42.660;23.316;2022-07-06T07:56:41;18.27;;;14.30;;
6089;SDS011;3073;42.660;23.316;2022-07-06T07:59:08;21.60;;;13.93;;
6089;SDS011;3073;42.660;23.316;2022-07-06T08:01:35;18.67;;;13.77;;
6089;SDS011;3073;42.660;23.316;2022-07-06T08:04:03;15.60;;;12.30;;
6089;SDS011;3073;42.660;23.316;2022-07-06T08:06:30;19.77;;;13.20;;
6089;SDS011;3073;42.660;23.316;2022-07-06T08:08:58;17.40;;;13.47;;
6089;SDS011;3073;42.660;23.316;2022-07-06T08:11:25;15.10;;;12.63;;
6089;SDS011;3073;42.660;23.316;2022-07-06T08:13:52;17.17;;;12.63;;
6089;SDS011;3073;42.660;23.316;2022-07-06T08:16:19;15.97;;;13.37;;
6089;SDS011;3073;42.660;23.316;2022-07-06T08:18:46;19.40;;;12.82;;
6089;SDS011;3073;42.660;23.316;2022-07-06T08:21:13;15.37;;;13.30;;
6089;SDS011;3073;42.660;23.316;2022-07-06T08:23:40;14.37;;;12.63;;
6089;SDS011;3073;42.660;23.316;2022-07-06T08:26:08;19.27;;;13.97;;
6089;SDS011;3073;42.660;23.316;2022-07-06T08:28:36;15.40;;;13.40;;
6089;SDS011;3073;42.660;23.316;2022-07-06T08:31:02;14.57;;;13.07;;
6089;SDS011;3073;42.660;23.316;2022-07-06T08:33:29;27.70;;;14.27;;
6089;SDS011;3073;42.660;23.316;2022-07-06T08:35:56;17.63;;;14.40;;
6089;SDS011;3073;42.660;23.316;2022-07-06T08:38:24;15.80;;;13.47;;
6089;SDS011;3073;42.660;23.316;2022-07-06T08:40:51;16.90;;;14.13;;
6089;SDS011;3073;42.660;23.316;2022-07-06T08:43:20;19.07;;;14.00;;
6089;SDS011;3073;42.660;23.316;2022-07-06T08:45:47;16.07;;;14.13;;
6089;SDS011;3073;42.660;23.316;2022-07-06T08:48:17;20.93;;;13.77;;
6089;SDS011;3073;42.660;23.316;2022-07-06T08:50:45;22.63;;;15.50;;
6089;SDS011;3073;42.660;23.316;2022-07-06T08:53:12;25.27;;;13.90;;
6089;SDS011;3073;42.660;23.316;2022-07-06T08:55:39;17.50;;;13.77;;
6089;SDS011;3073;42.660;23.316;2022-07-06T08:58:06;21.00;;;14.80;;
6089;SDS011;3073;42.660;23.316;2022-07-06T09:00:35;18.17;;;15.13;;
6089;SDS011;3073;42.660;23.316;2022-07-06T09:03:02;16.70;;;14.90;;
6089;SDS011;3073;42.660;23.316;2022-07-06T09:05:31;21.47;;;15.53;;
6089;SDS011;3073;42.660;23.316;2022-07-06T09:08:00;21.73;;;16.53;;
6089;SDS011;3073;42.660;23.316;2022-07-06T09:10:29;21.47;;;17.80;;
6089;SDS011;3073;42.660;23.316;2022-07-06T09:13:01;16.03;;;13.90;;
6089;SDS011;3073;42.660;23.316;2022-07-06T09:15:29;17.97;;;14.57;;
6089;SDS011;3073;42.660;23.316;2022-07-06T09:17:58;16.47;;;13.97;;
6089;SDS011;3073;42.660;23.316;2022-07-06T09:20:25;20.87;;;14.60;;
6089;SDS011;3073;42.660;23.316;2022-07-06T09:22:56;22.60;;;16.73;;
6089;SDS011;3073;42.660;23.316;2022-07-06T09:25:24;26.53;;;17.10;;
6089;SDS011;3073;42.660;23.316;2022-07-06T09:27:52;21.30;;;15.77;;
6089;SDS011;3073;42.660;23.316;2022-07-06T09:30:20;22.30;;;16.47;;
6089;SDS011;3073;42.660;23.316;2022-07-06T09:32:49;17.60;;;15.10;;
6089;SDS011;3073;42.660;23.316;2022-07-06T09:35:24;22.20;;;14.57;;
6089;SDS011;3073;42.660;23.316;2022-07-06T09:38:03;19.20;;;14.60;;
6089;SDS011;3073;42.660;23.316;2022-07-06T09:40:31;15.70;;;14.00;;
6089;SDS011;3073;42.660;23.316;2022-07-06T09:43:09;14.00;;;12.00;;
6089;SDS011;3073;42.660;23.316;2022-07-06T09:45:37;17.03;;;13.80;;
6089;SDS011;3073;42.660;23.316;2022-07-06T09:48:06;17.83;;;13.40;;
6089;SDS011;3073;42.660;23.316;2022-07-06T09:50:40;22.30;;;14.93;;
6089;SDS011;3073;42.660;23.316;2022-07-06T09:53:08;20.63;;;16.63;;
6089;SDS011;3073;42.660;23.316;2022-07-06T09:55:35;20.10;;;15.10;;
6089;SDS011;3073;42.660;23.316;2022-07-06T09:58:02;22.63;;;15.70;;
6089;SDS011;3073;42.660;23.316;2022-07-06T10:00:30;24.85;;;15.27;;
6089;SDS011;3073;42.660;23.316;2022-07-06T10:02:59;17.95;;;14.50;;
6089;SDS011;3073;42.660;23.316;2022-07-06T10:05:26;19.83;;;16.50;;
6089;SDS011;3073;42.660;23.316;2022-07-06T10:07:57;18.60;;;16.58;;
6089;SDS011;3073;42.660;23.316;2022-07-06T10:10:26;21.17;;;15.82;;
6089;SDS011;3073;42.660;23.316;2022-07-06T10:12:54;17.85;;;15.95;;
6089;SDS011;3073;42.660;23.316;2022-07-06T10:15:22;17.10;;;15.27;;
6089;SDS011;3073;42.660;23.316;2022-07-06T10:17:51;16.85;;;15.20;;
6089;SDS011;3073;42.660;23.316;2022-07-06T10:20:18;19.58;;;15.05;;
6089;SDS011;3073;42.660;23.316;2022-07-06T10:22:46;17.23;;;15.25;;
6089;SDS011;3073;42.660;23.316;2022-07-06T10:25:16;16.27;;;14.57;;
6089;SDS011;3073;42.660;23.316;2022-07-06T10:27:44;15.20;;;13.70;;
6089;SDS011;3073;42.660;23.316;2022-07-06T10:30:12;20.40;;;15.43;;
6089;SDS011;3073;42.660;23.316;2022-07-06T10:32:41;18.65;;;16.65;;
6089;SDS011;3073;42.660;23.316;2022-07-06T10:35:12;19.40;;;16.13;;
6089;SDS011;3073;42.660;23.316;2022-07-06T10:37:39;23.20;;;16.48;;
6089;SDS011;3073;42.660;23.316;2022-07-06T10:40:07;22.13;;;17.05;;
6089;SDS011;3073;42.660;23.316;2022-07-06T10:42:57;17.42;;;15.63;;
6089;SDS011;3073;42.660;23.316;2022-07-06T10:48:18;16.25;;;14.65;;
6089;SDS011;3073;42.660;23.316;2022-07-06T10:50:47;15.88;;;14.18;;
6089;SDS011;3073;42.660;23.316;2022-07-06T10:53:16;17.00;;;14.32;;
6089;SDS011;3073;42.660;23.316;2022-07-06T10:55:44;18.83;;;13.63;;
6089;SDS011;3073;42.660;23.316;2022-07-06T10:58:15;16.90;;;15.23;;
6089;SDS011;3073;42.660;23.316;2022-07-06T11:01:01;17.00;;;15.32;;
6089;SDS011;3073;42.660;23.316;2022-07-06T11:03:29;17.35;;;15.65;;
6089;SDS011;3073;42.660;23.316;2022-07-06T11:05:57;17.33;;;15.52;;
6089;SDS011;3073;42.660;23.316;2022-07-06T11:11:14;18.83;;;16.25;;
6089;SDS011;3073;42.660;23.316;2022-07-06T11:13:47;16.70;;;14.98;;
6089;SDS011;3073;42.660;23.316;2022-07-06T11:16:15;17.10;;;15.30;;
6089;SDS011;3073;42.660;23.316;2022-07-06T11:18:46;16.38;;;14.77;;
6089;SDS011;3073;42.660;23.316;2022-07-06T11:21:21;17.67;;;15.98;;
6089;SDS011;3073;42.660;23.316;2022-07-06T11:23:49;19.33;;;15.43;;
6089;SDS011;3073;42.660;23.316;2022-07-06T11:26:17;19.30;;;17.38;;
6089;SDS011;3073;42.660;23.316;2022-07-06T11:28:46;15.88;;;14.27;;
6089;SDS011;3073;42.660;23.316;2022-07-06T11:31:16;15.50;;;14.02;;
6089;SDS011;3073;42.660;23.316;2022-07-06T11:33:46;17.20;;;14.73;;
6089;SDS011;3073;42.660;23.316;2022-07-06T11:36:14;17.27;;;15.57;;
6089;SDS011;3073;42.660;23.316;2022-07-06T11:38:42;14.80;;;13.40;;
6089;SDS011;3073;42.660;23.316;2022-07-06T11:41:09;16.67;;;15.18;;
6089;SDS011;3073;42.660;23.316;2022-07-06T11:43:39;16.90;;;15.10;;
6089;SDS011;3073;42.660;23.316;2022-07-06T11:46:26;16.90;;;14.23;;
6089;SDS011;3073;42.660;23.316;2022-07-06T11:48:55;19.67;;;15.30;;
6089;SDS011;3073;42.660;23.316;2022-07-06T11:51:23;15.70;;;14.02;;
6089;SDS011;3073;42.660;23.316;2022-07-06T11:53:51;17.45;;;14.75;;
6089;SDS011;3073;42.660;23.316;2022-07-06T11:56:20;16.10;;;14.40;;
6089;SDS011;3073;42.660;23.316;2022-07-06T11:58:51;17.90;;;15.35;;
6089;SDS011;3073;42.660;23.316;2022-07-06T12:01:21;20.02;;;15.10;;
6089;SDS011;3073;42.660;23.316;2022-07-06T12:03:50;15.80;;;14.25;;
6089;SDS011;3073;42.660;23.316;2022-07-06T12:06:18;18.10;;;16.30;;
6089;SDS011;3073;42.660;23.316;2022-07-06T12:08:47;15.85;;;13.45;;
6089;SDS011;3073;42.660;23.316;2022-07-06T12:11:22;16.25;;;14.63;;
6089;SDS011;3073;42.660;23.316;2022-07-06T12:13:51;17.88;;;16.08;;
6089;SDS011;3073;42.660;23.316;2022-07-06T12:16:20;20.55;;;16.23;;
6089;SDS011;3073;42.660;23.316;2022-07-06T12:18:49;16.17;;;14.55;;
6089;SDS011;3073;42.660;23.316;2022-07-06T12:21:18;14.75;;;13.27;;
6089;SDS011;3073;42.660;23.316;2022-07-06T12:23:47;16.50;;;11.88;;
6089;SDS011;3073;42.660;23.316;2022-07-06T12:26:16;13.48;;;11.98;;
6089;SDS011;3073;42.660;23.316;2022-07-06T12:28:45;17.38;;;11.95;;
6089;SDS011;3073;42.660;23.316;2022-07-06T12:33:58;12.05;;;10.85;;
6089;SDS011;3073;42.660;23.316;2022-07-06T12:36:26;16.05;;;12.30;;
6089;SDS011;3073;42.660;23.316;2022-07-06T12:38:53;11.50;;;10.40;;
6089;SDS011;3073;42.660;23.316;2022-07-06T12:44:11;17.00;;;12.35;;
6089;SDS011;3073;42.660;23.316;2022-07-06T12:46:39;15.45;;;12.85;;
6089;SDS011;3073;42.660;23.316;2022-07-06T12:49:18;14.90;;;11.43;;
6089;SDS011;3073;42.660;23.316;2022-07-06T12:51:58;12.07;;;10.77;;
6089;SDS011;3073;42.660;23.316;2022-07-06T12:54:30;10.45;;;9.43;;
6089;SDS011;3073;42.660;23.316;2022-07-06T12:57:03;12.15;;;9.15;;
6089;SDS011;3073;42.660;23.316;2022-07-06T12:59:35;9.38;;;8.10;;
6089;SDS011;3073;42.660;23.316;2022-07-06T13:02:05;9.13;;;8.27;;
6089;SDS011;3073;42.660;23.316;2022-07-06T13:04:36;9.73;;;7.57;;
6089;SDS011;3073;42.660;23.316;2022-07-06T13:07:04;10.43;;;8.48;;
6089;SDS011;3073;42.660;23.316;2022-07-06T13:09:31;8.55;;;7.65;;
6089;SDS011;3073;42.660;23.316;2022-07-06T13:12:01;10.43;;;8.20;;
6089;SDS011;3073;42.660;23.316;2022-07-06T13:14:28;9.77;;;7.20;;
6089;SDS011;3073;42.660;23.316;2022-07-06T13:16:55;8.85;;;7.35;;
6089;SDS011;3073;42.660;23.316;2022-07-06T13:19:22;10.95;;;6.93;;
6089;SDS011;3073;42.660;23.316;2022-07-06T13:21:51;10.27;;;6.68;;
6089;SDS011;3073;42.660;23.316;2022-07-06T13:24:21;9.23;;;5.70;;
6089;SDS011;3073;42.660;23.316;2022-07-06T13:26:47;11.52;;;6.20;;
6089;SDS011;3073;42.660;23.316;2022-07-06T13:29:15;10.00;;;6.38;;
6089;SDS011;3073;42.660;23.316;2022-07-06T13:31:42;6.13;;;5.60;;
6089;SDS011;3073;42.660;23.316;2022-07-06T13:34:09;9.55;;;5.60;;
6089;SDS011;3073;42.660;23.316;2022-07-06T13:36:38;10.85;;;5.68;;
6089;SDS011;3073;42.660;23.316;2022-07-06T13:39:07;6.30;;;5.78;;
6089;SDS011;3073;42.660;23.316;2022-07-06T13:41:35;5.88;;;5.28;;
6089;SDS011;3073;42.660;23.316;2022-07-06T13:44:02;5.85;;;5.35;;
6089;SDS011;3073;42.660;23.316;2022-07-06T13:46:31;4.80;;;4.10;;
6089;SDS011;3073;42.660;23.316;2022-07-06T13:48:58;6.25;;;5.60;;
6089;SDS011;3073;42.660;23.316;2022-07-06T13:51:27;7.15;;;4.10;;
6089;SDS011;3073;42.660;23.316;2022-07-06T13:53:54;4.22;;;3.83;;
6089;SDS011;3073;42.660;23.316;2022-07-06T13:56:23;7.00;;;3.72;;
6089;SDS011;3073;42.660;23.316;2022-07-06T13:58:49;7.03;;;3.80;;
6089;SDS011;3073;42.660;23.316;2022-07-06T14:01:17;3.78;;;3.45;;
6089;SDS011;3073;42.660;23.316;2022-07-06T14:03:44;4.25;;;3.70;;
6089;SDS011;3073;42.660;23.316;2022-07-06T14:06:11;7.70;;;3.63;;
6089;SDS011;3073;42.660;23.316;2022-07-06T14:08:40;3.30;;;2.67;;
6089;SDS011;3073;42.660;23.316;2022-07-06T14:11:07;3.08;;;2.88;;
6089;SDS011;3073;42.660;23.316;2022-07-06T14:13:37;7.88;;;3.08;;
6089;SDS011;3073;42.660;23.316;2022-07-06T14:16:05;7.13;;;3.33;;
6089;SDS011;3073;42.660;23.316;2022-07-06T14:18:32;3.75;;;2.88;;
6089;SDS011;3073;42.660;23.316;2022-07-06T14:20:59;2.88;;;2.67;;
6089;SDS011;3073;42.660;23.316;2022-07-06T14:23:26;7.93;;;3.20;;
6089;SDS011;3073;42.660;23.316;2022-07-06T14:25:54;5.68;;;3.17;;
6089;SDS011;3073;42.660;23.316;2022-07-06T14:28:21;5.30;;;3.33;;
6089;SDS011;3073;42.660;23.316;2022-07-06T14:30:49;7.18;;;3.13;;
6089;SDS011;3073;42.660;23.316;2022-07-06T14:33:17;2.80;;;2.50;;
6089;SDS011;3073;42.660;23.316;2022-07-06T14:35:46;4.50;;;3.42;;
6089;SDS011;3073;42.660;23.316;2022-07-06T14:38:16;3.50;;;3.20;;
6089;SDS011;3073;42.660;23.316;2022-07-06T14:40:44;3.85;;;3.30;;
6089;SDS011;3073;42.660;23.316;2022-07-06T14:43:13;3.67;;;3.38;;
6089;SDS011;3073;42.660;23.316;2022-07-06T14:45:40;4.82;;;3.35;;
6089;SDS011;3073;42.660;23.316;2022-07-06T14:48:10;3.15;;;2.60;;
6089;SDS011;3073;42.660;23.316;2022-07-06T14:50:37;3.95;;;3.45;;
6089;SDS011;3073;42.660;23.316;2022-07-06T14:53:04;3.92;;;3.33;;
6089;SDS011;3073;42.660;23.316;2022-07-06T14:55:33;3.58;;;3.28;;